sensor_id;sensor_type;location;lat;lon;timestamp;P1;durP1;ratioP1;P2;durP2;ratioP2
11699;SDS011;5906;51.660;6.674;2023-01-10T00:00:41;20.87;;;8.20;;
11699;SDS011;5906;51.660;6.674;2023-01-10T00:03:09;15.10;;;7.73;;
11699;SDS011;5906;51.660;6.674;2023-01-10T00:05:37;14.30;;;8.20;;
11699;SDS011;5906;51.660;6.674;2023-01-10T00:08:06;14.90;;;8.10;;
11699;SDS011;5906;51.660;6.674;2023-01-10T00:10:33;19.70;;;8.70;;
11699;SDS011;5906;51.660;6.674;2023-01-10T00:13:01;12.63;;;7.63;;
11699;SDS011;5906;51.660;6.674;2023-01-10T00:15:46;22.23;;;9.40;;
11699;SDS011;5906;51.660;6.674;2023-01-10T00:18:16;17.43;;;7.50;;
11699;SDS011;5906;51.660;6.674;2023-01-10T00:20:43;16.83;;;8.40;;
11699;SDS011;5906;51.660;6.674;2023-01-10T00:23:12;18.47;;;7.97;;
11699;SDS011;5906;51.660;6.674;2023-01-10T00:25:39;19.03;;;8.53;;
11699;SDS011;5906;51.660;6.674;2023-01-10T00:28:07;21.93;;;9.20;;
11699;SDS011;5906;51.660;6.674;2023-01-10T00:30:48;15.77;;;8.20;;
11699;SDS011;5906;51.660;6.674;2023-01-10T00:33:27;11.70;;;7.00;;
11699;SDS011;5906;51.660;6.674;2023-01-10T00:35:57;13.63;;;7.47;;
11699;SDS011;5906;51.660;6.674;2023-01-10T00:38:25;23.47;;;8.00;;
11699;SDS011;5906;51.660;6.674;2023-01-10T00:40:52;21.00;;;8.03;;
11699;SDS011;5906;51.660;6.674;2023-01-10T00:43:19;15.57;;;7.30;;
11699;SDS011;5906;51.660;6.674;2023-01-10T00:46:05;15.23;;;7.37;;
11699;SDS011;5906;51.660;6.674;2023-01-10T00:48:33;12.13;;;6.97;;
11699;SDS011;5906;51.660;6.674;2023-01-10T00:50:59;15.10;;;7.90;;
11699;SDS011;5906;51.660;6.674;2023-01-10T00:53:27;20.40;;;8.23;;
11699;SDS011;5906;51.660;6.674;2023-01-10T00:55:54;17.30;;;7.63;;
11699;SDS011;5906;51.660;6.674;2023-01-10T00:58:21;30.17;;;7.63;;
11699;SDS011;5906;51.660;6.674;2023-01-10T01:00:48;14.00;;;6.23;;
11699;SDS011;5906;51.660;6.674;2023-01-10T01:03:17;15.27;;;6.33;;
11699;SDS011;5906;51.660;6.674;2023-01-10T01:05:46;19.93;;;7.10;;
11699;SDS011;5906;51.660;6.674;2023-01-10T01:08:14;21.17;;;7.10;;
11699;SDS011;5906;51.660;6.674;2023-01-10T01:10:42;20.50;;;7.40;;
11699;SDS011;5906;51.660;6.674;2023-01-10T01:13:12;16.03;;;6.50;;
11699;SDS011;5906;51.660;6.674;2023-01-10T01:15:43;13.10;;;7.07;;
11699;SDS011;5906;51.660;6.674;2023-01-10T01:18:11;17.23;;;6.43;;
11699;SDS011;5906;51.660;6.674;2023-01-10T01:20:40;16.90;;;6.80;;
11699;SDS011;5906;51.660;6.674;2023-01-10T01:23:08;12.07;;;6.77;;
11699;SDS011;5906;51.660;6.674;2023-01-10T01:25:35;23.50;;;5.90;;
11699;SDS011;5906;51.660;6.674;2023-01-10T01:28:02;17.77;;;6.87;;
11699;SDS011;5906;51.660;6.674;2023-01-10T01:30:29;11.50;;;5.97;;
11699;SDS011;5906;51.660;6.674;2023-01-10T01:32:56;20.50;;;6.03;;
11699;SDS011;5906;51.660;6.674;2023-01-10T01:35:23;15.13;;;5.97;;
11699;SDS011;5906;51.660;6.674;2023-01-10T01:37:50;22.07;;;5.90;;
11699;SDS011;5906;51.660;6.674;2023-01-10T01:40:18;11.60;;;6.13;;
11699;SDS011;5906;51.660;6.674;2023-01-10T01:42:47;15.53;;;6.10;;
11699;SDS011;5906;51.660;6.674;2023-01-10T01:47:51;17.07;;;6.43;;
11699;SDS011;5906;51.660;6.674;2023-01-10T01:53:17;11.07;;;5.90;;
11699;SDS011;5906;51.660;6.674;2023-01-10T01:55:52;19.60;;;6.57;;
11699;SDS011;5906;51.660;6.674;2023-01-10T01:58:27;16.27;;;6.83;;
11699;SDS011;5906;51.660;6.674;2023-01-10T02:01:00;12.87;;;5.77;;
11699;SDS011;5906;51.660;6.674;2023-01-10T02:03:28;13.17;;;6.40;;
11699;SDS011;5906;51.660;6.674;2023-01-10T02:05:55;11.40;;;6.40;;
11699;SDS011;5906;51.660;6.674;2023-01-10T02:08:23;18.20;;;6.30;;
11699;SDS011;5906;51.660;6.674;2023-01-10T02:10:54;8.83;;;5.00;;
11699;SDS011;5906;51.660;6.674;2023-01-10T02:13:31;12.90;;;5.30;;
11699;SDS011;5906;51.660;6.674;2023-01-10T02:16:00;21.10;;;5.87;;
11699;SDS011;5906;51.660;6.674;2023-01-10T02:18:27;7.77;;;5.63;;
11699;SDS011;5906;51.660;6.674;2023-01-10T02:34:59;12.57;;;4.70;;
11699;SDS011;5906;51.660;6.674;2023-01-10T02:37:35;15.47;;;4.83;;
11699;SDS011;5906;51.660;6.674;2023-01-10T02:43:16;10.87;;;6.60;;
11699;SDS011;5906;51.660;6.674;2023-01-10T02:45:51;16.20;;;7.00;;
11699;SDS011;5906;51.660;6.674;2023-01-10T02:48:20;20.40;;;5.60;;
11699;SDS011;5906;51.660;6.674;2023-01-10T02:50:52;26.40;;;7.57;;
11699;SDS011;5906;51.660;6.674;2023-01-10T02:53:24;15.40;;;6.40;;
11699;SDS011;5906;51.660;6.674;2023-01-10T02:56:11;11.93;;;5.10;;
11699;SDS011;5906;51.660;6.674;2023-01-10T03:01:15;18.03;;;6.30;;
11699;SDS011;5906;51.660;6.674;2023-01-10T03:09:09;20.23;;;6.00;;
11699;SDS011;5906;51.660;6.674;2023-01-10T03:11:46;12.63;;;5.70;;
11699;SDS011;5906;51.660;6.674;2023-01-10T03:14:18;13.50;;;7.07;;
11699;SDS011;5906;51.660;6.674;2023-01-10T03:16:50;19.67;;;8.17;;
11699;SDS011;5906;51.660;6.674;2023-01-10T03:19:24;11.10;;;6.17;;
11699;SDS011;5906;51.660;6.674;2023-01-10T03:21:56;17.63;;;5.43;;
11699;SDS011;5906;51.660;6.674;2023-01-10T03:24:31;14.10;;;6.77;;
11699;SDS011;5906;51.660;6.674;2023-01-10T03:27:06;11.10;;;5.43;;
11699;SDS011;5906;51.660;6.674;2023-01-10T03:29:42;22.20;;;5.90;;
11699;SDS011;5906;51.660;6.674;2023-01-10T03:32:16;19.53;;;6.57;;
11699;SDS011;5906;51.660;6.674;2023-01-10T03:34:48;16.90;;;7.30;;
11699;SDS011;5906;51.660;6.674;2023-01-10T03:40:15;15.20;;;5.57;;
11699;SDS011;5906;51.660;6.674;2023-01-10T03:43:12;11.83;;;7.23;;
11699;SDS011;5906;51.660;6.674;2023-01-10T03:46:26;16.13;;;6.80;;
11699;SDS011;5906;51.660;6.674;2023-01-10T03:49:01;18.10;;;7.50;;
11699;SDS011;5906;51.660;6.674;2023-01-10T03:51:31;21.13;;;7.40;;
11699;SDS011;5906;51.660;6.674;2023-01-10T03:53:59;20.73;;;6.63;;
11699;SDS011;5906;51.660;6.674;2023-01-10T03:56:27;14.63;;;7.47;;
11699;SDS011;5906;51.660;6.674;2023-01-10T03:58:54;10.90;;;6.47;;
11699;SDS011;5906;51.660;6.674;2023-01-10T04:01:21;16.63;;;5.70;;
11699;SDS011;5906;51.660;6.674;2023-01-10T04:03:48;15.80;;;6.50;;
11699;SDS011;5906;51.660;6.674;2023-01-10T04:06:15;14.53;;;7.13;;
11699;SDS011;5906;51.660;6.674;2023-01-10T04:08:43;11.17;;;6.43;;
11699;SDS011;5906;51.660;6.674;2023-01-10T04:11:10;16.10;;;7.37;;
11699;SDS011;5906;51.660;6.674;2023-01-10T04:13:37;12.60;;;6.07;;
11699;SDS011;5906;51.660;6.674;2023-01-10T04:16:07;16.73;;;6.73;;
11699;SDS011;5906;51.660;6.674;2023-01-10T04:18:35;14.80;;;6.47;;
11699;SDS011;5906;51.660;6.674;2023-01-10T04:21:02;17.73;;;6.60;;
11699;SDS011;5906;51.660;6.674;2023-01-10T04:23:29;14.00;;;7.30;;
11699;SDS011;5906;51.660;6.674;2023-01-10T04:25:56;16.00;;;6.60;;
11699;SDS011;5906;51.660;6.674;2023-01-10T04:28:23;16.50;;;6.90;;
11699;SDS011;5906;51.660;6.674;2023-01-10T04:30:50;21.63;;;6.50;;
11699;SDS011;5906;51.660;6.674;2023-01-10T04:33:17;13.00;;;5.27;;
11699;SDS011;5906;51.660;6.674;2023-01-10T04:35:48;11.67;;;6.23;;
11699;SDS011;5906;51.660;6.674;2023-01-10T04:38:16;16.60;;;5.37;;
11699;SDS011;5906;51.660;6.674;2023-01-10T04:40:43;16.03;;;6.47;;
11699;SDS011;5906;51.660;6.674;2023-01-10T04:43:10;13.63;;;5.47;;
11699;SDS011;5906;51.660;6.674;2023-01-10T04:45:37;24.47;;;5.63;;
11699;SDS011;5906;51.660;6.674;2023-01-10T04:48:04;11.93;;;5.73;;
11699;SDS011;5906;51.660;6.674;2023-01-10T04:50:32;6.73;;;5.60;;
11699;SDS011;5906;51.660;6.674;2023-01-10T04:52:59;31.57;;;5.77;;
11699;SDS011;5906;51.660;6.674;2023-01-10T04:55:26;17.27;;;6.10;;
11699;SDS011;5906;51.660;6.674;2023-01-10T04:57:53;12.87;;;4.80;;
11699;SDS011;5906;51.660;6.674;2023-01-10T05:00:20;8.87;;;4.83;;
11699;SDS011;5906;51.660;6.674;2023-01-10T05:02:47;15.80;;;6.00;;
11699;SDS011;5906;51.660;6.674;2023-01-10T05:05:14;17.23;;;5.10;;
11699;SDS011;5906;51.660;6.674;2023-01-10T05:07:41;10.10;;;6.27;;
11699;SDS011;5906;51.660;6.674;2023-01-10T05:10:11;13.00;;;5.60;;
11699;SDS011;5906;51.660;6.674;2023-01-10T05:12:38;17.37;;;5.40;;
11699;SDS011;5906;51.660;6.674;2023-01-10T05:15:05;14.40;;;4.67;;
11699;SDS011;5906;51.660;6.674;2023-01-10T05:17:33;25.40;;;6.00;;
11699;SDS011;5906;51.660;6.674;2023-01-10T05:20:01;12.73;;;4.67;;
11699;SDS011;5906;51.660;6.674;2023-01-10T05:22:29;19.57;;;5.97;;
11699;SDS011;5906;51.660;6.674;2023-01-10T05:24:56;11.53;;;5.10;;
11699;SDS011;5906;51.660;6.674;2023-01-10T05:27:23;10.70;;;5.93;;
11699;SDS011;5906;51.660;6.674;2023-01-10T05:29:50;14.53;;;5.67;;
11699;SDS011;5906;51.660;6.674;2023-01-10T05:34:51;30.27;;;6.47;;
11699;SDS011;5906;51.660;6.674;2023-01-10T05:37:19;11.27;;;5.47;;
11699;SDS011;5906;51.660;6.674;2023-01-10T05:39:46;19.23;;;5.20;;
11699;SDS011;5906;51.660;6.674;2023-01-10T05:42:13;13.73;;;6.40;;
11699;SDS011;5906;51.660;6.674;2023-01-10T05:44:40;21.83;;;6.53;;
11699;SDS011;5906;51.660;6.674;2023-01-10T05:47:08;19.33;;;6.37;;
11699;SDS011;5906;51.660;6.674;2023-01-10T05:49:35;16.90;;;6.17;;
11699;SDS011;5906;51.660;6.674;2023-01-10T05:52:02;19.50;;;6.50;;
11699;SDS011;5906;51.660;6.674;2023-01-10T05:54:30;22.50;;;6.60;;
11699;SDS011;5906;51.660;6.674;2023-01-10T05:56:56;11.80;;;5.20;;
11699;SDS011;5906;51.660;6.674;2023-01-10T05:59:23;19.93;;;6.30;;
11699;SDS011;5906;51.660;6.674;2023-01-10T06:01:54;16.90;;;5.73;;
11699;SDS011;5906;51.660;6.674;2023-01-10T06:04:21;21.53;;;7.27;;
11699;SDS011;5906;51.660;6.674;2023-01-10T06:06:48;13.77;;;5.50;;
11699;SDS011;5906;51.660;6.674;2023-01-10T06:09:15;16.43;;;6.07;;
11699;SDS011;5906;51.660;6.674;2023-01-10T06:11:42;12.30;;;6.00;;
11699;SDS011;5906;51.660;6.674;2023-01-10T06:14:10;17.97;;;6.80;;
11699;SDS011;5906;51.660;6.674;2023-01-10T06:16:36;19.20;;;6.73;;
11699;SDS011;5906;51.660;6.674;2023-01-10T06:19:03;14.93;;;6.70;;
11699;SDS011;5906;51.660;6.674;2023-01-10T06:21:30;21.17;;;6.80;;
11699;SDS011;5906;51.660;6.674;2023-01-10T06:23:57;15.07;;;5.90;;
11699;SDS011;5906;51.660;6.674;2023-01-10T06:26:24;15.23;;;6.53;;
11699;SDS011;5906;51.660;6.674;2023-01-10T06:28:51;26.07;;;7.90;;
11699;SDS011;5906;51.660;6.674;2023-01-10T06:31:18;29.93;;;7.87;;
11699;SDS011;5906;51.660;6.674;2023-01-10T06:33:51;18.77;;;6.90;;
11699;SDS011;5906;51.660;6.674;2023-01-10T06:36:18;24.57;;;7.20;;
11699;SDS011;5906;51.660;6.674;2023-01-10T06:38:45;23.27;;;7.53;;
11699;SDS011;5906;51.660;6.674;2023-01-10T06:41:12;23.43;;;6.77;;
11699;SDS011;5906;51.660;6.674;2023-01-10T06:43:39;34.03;;;8.70;;
11699;SDS011;5906;51.660;6.674;2023-01-10T06:46:07;22.93;;;7.03;;
11699;SDS011;5906;51.660;6.674;2023-01-10T06:48:35;18.03;;;6.53;;
11699;SDS011;5906;51.660;6.674;2023-01-10T06:51:03;22.70;;;6.30;;
11699;SDS011;5906;51.660;6.674;2023-01-10T06:53:31;17.40;;;7.23;;
11699;SDS011;5906;51.660;6.674;2023-01-10T06:55:58;20.83;;;6.80;;
11699;SDS011;5906;51.660;6.674;2023-01-10T06:58:25;18.10;;;6.93;;
11699;SDS011;5906;51.660;6.674;2023-01-10T07:00:52;17.30;;;5.97;;
11699;SDS011;5906;51.660;6.674;2023-01-10T07:03:19;13.63;;;5.00;;
11699;SDS011;5906;51.660;6.674;2023-01-10T07:05:47;20.90;;;6.43;;
11699;SDS011;5906;51.660;6.674;2023-01-10T07:08:14;27.63;;;5.90;;
11699;SDS011;5906;51.660;6.674;2023-01-10T07:10:42;22.90;;;6.20;;
11699;SDS011;5906;51.660;6.674;2023-01-10T07:13:09;23.80;;;7.23;;
11699;SDS011;5906;51.660;6.674;2023-01-10T07:15:37;18.70;;;8.77;;
11699;SDS011;5906;51.660;6.674;2023-01-10T07:18:04;22.63;;;6.70;;
11699;SDS011;5906;51.660;6.674;2023-01-10T07:20:31;22.73;;;6.20;;
11699;SDS011;5906;51.660;6.674;2023-01-10T07:22:58;13.47;;;5.90;;
11699;SDS011;5906;51.660;6.674;2023-01-10T07:25:27;14.30;;;6.70;;
11699;SDS011;5906;51.660;6.674;2023-01-10T07:27:55;26.60;;;6.37;;
11699;SDS011;5906;51.660;6.674;2023-01-10T07:30:22;18.53;;;6.60;;
11699;SDS011;5906;51.660;6.674;2023-01-10T07:32:57;28.27;;;7.63;;
11699;SDS011;5906;51.660;6.674;2023-01-10T07:35:24;21.90;;;7.03;;
11699;SDS011;5906;51.660;6.674;2023-01-10T07:37:51;30.27;;;6.23;;
11699;SDS011;5906;51.660;6.674;2023-01-10T07:40:18;15.03;;;6.00;;
11699;SDS011;5906;51.660;6.674;2023-01-10T07:42:45;19.40;;;6.50;;
11699;SDS011;5906;51.660;6.674;2023-01-10T07:45:12;20.30;;;6.07;;
11699;SDS011;5906;51.660;6.674;2023-01-10T07:47:39;26.50;;;6.40;;
11699;SDS011;5906;51.660;6.674;2023-01-10T07:50:06;9.93;;;5.30;;
11699;SDS011;5906;51.660;6.674;2023-01-10T07:52:35;15.13;;;4.63;;
11699;SDS011;5906;51.660;6.674;2023-01-10T07:55:04;16.90;;;5.43;;
11699;SDS011;5906;51.660;6.674;2023-01-10T07:57:32;13.23;;;5.20;;
11699;SDS011;5906;51.660;6.674;2023-01-10T07:59:59;22.93;;;6.70;;
11699;SDS011;5906;51.660;6.674;2023-01-10T08:02:25;19.87;;;5.50;;
11699;SDS011;5906;51.660;6.674;2023-01-10T08:04:53;19.57;;;5.70;;
11699;SDS011;5906;51.660;6.674;2023-01-10T08:07:20;17.60;;;6.80;;
11699;SDS011;5906;51.660;6.674;2023-01-10T08:09:47;30.20;;;6.30;;
11699;SDS011;5906;51.660;6.674;2023-01-10T08:12:14;15.63;;;5.77;;
11699;SDS011;5906;51.660;6.674;2023-01-10T08:14:41;17.57;;;5.87;;
11699;SDS011;5906;51.660;6.674;2023-01-10T08:17:08;26.40;;;7.33;;
11699;SDS011;5906;51.660;6.674;2023-01-10T08:19:35;24.60;;;6.50;;
11699;SDS011;5906;51.660;6.674;2023-01-10T08:22:02;16.33;;;4.80;;
11699;SDS011;5906;51.660;6.674;2023-01-10T08:24:29;16.73;;;5.63;;
11699;SDS011;5906;51.660;6.674;2023-01-10T08:26:59;28.23;;;6.73;;
11699;SDS011;5906;51.660;6.674;2023-01-10T08:29:27;22.50;;;7.00;;
11699;SDS011;5906;51.660;6.674;2023-01-10T08:31:54;25.07;;;7.93;;
11699;SDS011;5906;51.660;6.674;2023-01-10T08:34:22;12.87;;;5.63;;
11699;SDS011;5906;51.660;6.674;2023-01-10T08:36:49;17.03;;;6.00;;
11699;SDS011;5906;51.660;6.674;2023-01-10T08:39:20;18.93;;;5.60;;
11699;SDS011;5906;51.660;6.674;2023-01-10T08:41:47;12.80;;;4.90;;
11699;SDS011;5906;51.660;6.674;2023-01-10T08:44:15;12.40;;;5.77;;
11699;SDS011;5906;51.660;6.674;2023-01-10T08:46:42;33.27;;;7.10;;
11699;SDS011;5906;51.660;6.674;2023-01-10T08:49:09;26.87;;;5.63;;
11699;SDS011;5906;51.660;6.674;2023-01-10T08:51:36;19.30;;;5.60;;
11699;SDS011;5906;51.660;6.674;2023-01-10T08:54:03;24.47;;;6.20;;
11699;SDS011;5906;51.660;6.674;2023-01-10T08:56:30;29.60;;;7.60;;
11699;SDS011;5906;51.660;6.674;2023-01-10T08:58:57;21.43;;;6.77;;
11699;SDS011;5906;51.660;6.674;2023-01-10T09:01:24;23.80;;;5.77;;
11699;SDS011;5906;51.660;6.674;2023-01-10T09:03:52;22.87;;;6.43;;
11699;SDS011;5906;51.660;6.674;2023-01-10T09:06:19;31.57;;;7.43;;
11699;SDS011;5906;51.660;6.674;2023-01-10T09:08:45;22.70;;;6.90;;
11699;SDS011;5906;51.660;6.674;2023-01-10T09:11:12;16.20;;;6.17;;
11699;SDS011;5906;51.660;6.674;2023-01-10T09:13:40;19.50;;;5.70;;
11699;SDS011;5906;51.660;6.674;2023-01-10T09:16:08;30.73;;;5.83;;
11699;SDS011;5906;51.660;6.674;2023-01-10T09:18:35;22.23;;;5.70;;
11699;SDS011;5906;51.660;6.674;2023-01-10T09:21:02;40.37;;;7.23;;
11699;SDS011;5906;51.660;6.674;2023-01-10T09:23:29;18.07;;;6.90;;
11699;SDS011;5906;51.660;6.674;2023-01-10T09:25:56;25.60;;;6.50;;
11699;SDS011;5906;51.660;6.674;2023-01-10T09:28:25;18.67;;;6.47;;
11699;SDS011;5906;51.660;6.674;2023-01-10T09:30:52;25.53;;;6.93;;
11699;SDS011;5906;51.660;6.674;2023-01-10T09:33:19;26.30;;;6.60;;
11699;SDS011;5906;51.660;6.674;2023-01-10T09:35:46;29.80;;;6.70;;
11699;SDS011;5906;51.660;6.674;2023-01-10T09:38:14;21.70;;;6.90;;
11699;SDS011;5906;51.660;6.674;2023-01-10T09:43:36;20.03;;;6.00;;
11699;SDS011;5906;51.660;6.674;2023-01-10T09:46:14;14.87;;;5.57;;
11699;SDS011;5906;51.660;6.674;2023-01-10T09:49:06;31.90;;;6.83;;
11699;SDS011;5906;51.660;6.674;2023-01-10T09:51:40;34.40;;;6.10;;
11699;SDS011;5906;51.660;6.674;2023-01-10T09:54:10;26.00;;;6.60;;
11699;SDS011;5906;51.660;6.674;2023-01-10T09:56:59;26.03;;;6.00;;
11699;SDS011;5906;51.660;6.674;2023-01-10T09:59:31;15.87;;;5.90;;
11699;SDS011;5906;51.660;6.674;2023-01-10T10:02:11;20.50;;;5.80;;
11699;SDS011;5906;51.660;6.674;2023-01-10T10:05:33;22.43;;;5.87;;
11699;SDS011;5906;51.660;6.674;2023-01-10T10:07:57;13.83;;;5.20;;
11699;SDS011;5906;51.660;6.674;2023-01-10T10:10:37;16.13;;;6.23;;
11699;SDS011;5906;51.660;6.674;2023-01-10T10:16:08;25.97;;;6.63;;
11699;SDS011;5906;51.660;6.674;2023-01-10T10:19:12;24.53;;;7.00;;
11699;SDS011;5906;51.660;6.674;2023-01-10T10:24:45;50.50;;;7.03;;
11699;SDS011;5906;51.660;6.674;2023-01-10T10:27:21;23.77;;;6.37;;
11699;SDS011;5906;51.660;6.674;2023-01-10T10:35:41;18.13;;;6.40;;
11699;SDS011;5906;51.660;6.674;2023-01-10T10:38:15;28.10;;;6.43;;
11699;SDS011;5906;51.660;6.674;2023-01-10T10:40:46;19.10;;;5.50;;
11699;SDS011;5906;51.660;6.674;2023-01-10T10:43:19;17.80;;;6.37;;
11699;SDS011;5906;51.660;6.674;2023-01-10T10:45:51;32.30;;;7.50;;
11699;SDS011;5906;51.660;6.674;2023-01-10T10:53:30;35.07;;;9.17;;
11699;SDS011;5906;51.660;6.674;2023-01-10T10:55:59;19.57;;;6.30;;
11699;SDS011;5906;51.660;6.674;2023-01-10T10:58:27;15.13;;;5.70;;
11699;SDS011;5906;51.660;6.674;2023-01-10T11:01:00;14.87;;;6.00;;
11699;SDS011;5906;51.660;6.674;2023-01-10T11:03:30;24.77;;;5.97;;
11699;SDS011;5906;51.660;6.674;2023-01-10T11:06:06;19.20;;;6.37;;
11699;SDS011;5906;51.660;6.674;2023-01-10T11:08:37;18.70;;;6.63;;
11699;SDS011;5906;51.660;6.674;2023-01-10T11:11:31;28.77;;;6.37;;
11699;SDS011;5906;51.660;6.674;2023-01-10T11:14:01;24.13;;;6.07;;
11699;SDS011;5906;51.660;6.674;2023-01-10T11:16:31;22.40;;;6.03;;
11699;SDS011;5906;51.660;6.674;2023-01-10T11:21:49;19.93;;;5.80;;
11699;SDS011;5906;51.660;6.674;2023-01-10T11:24:29;31.97;;;4.97;;
11699;SDS011;5906;51.660;6.674;2023-01-10T11:27:21;28.13;;;6.77;;
11699;SDS011;5906;51.660;6.674;2023-01-10T11:29:49;17.67;;;6.07;;
11699;SDS011;5906;51.660;6.674;2023-01-10T11:32:31;24.10;;;5.67;;
11699;SDS011;5906;51.660;6.674;2023-01-10T11:35:14;27.20;;;5.83;;
11699;SDS011;5906;51.660;6.674;2023-01-10T11:37:56;20.60;;;5.43;;
11699;SDS011;5906;51.660;6.674;2023-01-10T11:43:37;27.63;;;5.00;;
11699;SDS011;5906;51.660;6.674;2023-01-10T11:51:38;16.90;;;4.77;;
11699;SDS011;5906;51.660;6.674;2023-01-10T11:56:55;17.20;;;5.20;;
11699;SDS011;5906;51.660;6.674;2023-01-10T11:59:28;24.53;;;5.93;;
11699;SDS011;5906;51.660;6.674;2023-01-10T12:02:13;23.17;;;5.10;;
11699;SDS011;5906;51.660;6.674;2023-01-10T12:04:47;16.80;;;4.93;;
11699;SDS011;5906;51.660;6.674;2023-01-10T12:07:16;17.30;;;5.43;;
11699;SDS011;5906;51.660;6.674;2023-01-10T12:12:25;25.20;;;5.70;;
11699;SDS011;5906;51.660;6.674;2023-01-10T12:15:00;13.80;;;5.73;;
11699;SDS011;5906;51.660;6.674;2023-01-10T12:17:51;20.73;;;5.87;;
11699;SDS011;5906;51.660;6.674;2023-01-10T12:20:20;16.83;;;6.10;;
11699;SDS011;5906;51.660;6.674;2023-01-10T12:22:50;19.80;;;5.50;;
11699;SDS011;5906;51.660;6.674;2023-01-10T12:25:26;17.77;;;5.00;;
11699;SDS011;5906;51.660;6.674;2023-01-10T12:28:02;24.23;;;6.80;;
11699;SDS011;5906;51.660;6.674;2023-01-10T12:30:38;27.53;;;5.47;;
11699;SDS011;5906;51.660;6.674;2023-01-10T12:33:19;18.17;;;5.00;;
11699;SDS011;5906;51.660;6.674;2023-01-10T12:35:57;29.60;;;4.90;;
11699;SDS011;5906;51.660;6.674;2023-01-10T12:38:35;16.50;;;4.43;;
11699;SDS011;5906;51.660;6.674;2023-01-10T12:41:26;16.50;;;5.80;;
11699;SDS011;5906;51.660;6.674;2023-01-10T12:44:36;19.37;;;4.60;;
11699;SDS011;5906;51.660;6.674;2023-01-10T12:49:48;22.23;;;5.80;;
11699;SDS011;5906;51.660;6.674;2023-01-10T12:55:01;23.57;;;5.57;;
11699;SDS011;5906;51.660;6.674;2023-01-10T12:57:34;11.90;;;5.90;;
11699;SDS011;5906;51.660;6.674;2023-01-10T13:00:05;22.03;;;5.93;;
11699;SDS011;5906;51.660;6.674;2023-01-10T13:02:41;22.87;;;6.30;;
11699;SDS011;5906;51.660;6.674;2023-01-10T13:05:14;15.57;;;5.47;;
11699;SDS011;5906;51.660;6.674;2023-01-10T13:07:46;26.33;;;4.70;;
11699;SDS011;5906;51.660;6.674;2023-01-10T13:10:17;14.20;;;4.67;;
11699;SDS011;5906;51.660;6.674;2023-01-10T13:12:49;11.37;;;5.40;;
11699;SDS011;5906;51.660;6.674;2023-01-10T13:15:22;25.43;;;5.40;;
11699;SDS011;5906;51.660;6.674;2023-01-10T13:17:57;25.10;;;5.10;;
11699;SDS011;5906;51.660;6.674;2023-01-10T13:20:37;24.10;;;5.10;;
11699;SDS011;5906;51.660;6.674;2023-01-10T13:23:26;21.97;;;6.13;;
11699;SDS011;5906;51.660;6.674;2023-01-10T13:26:04;16.63;;;4.80;;
11699;SDS011;5906;51.660;6.674;2023-01-10T13:28:35;21.10;;;4.73;;
11699;SDS011;5906;51.660;6.674;2023-01-10T13:31:20;13.37;;;4.20;;
11699;SDS011;5906;51.660;6.674;2023-01-10T13:36:39;20.50;;;4.87;;
11699;SDS011;5906;51.660;6.674;2023-01-10T13:55:30;12.13;;;3.80;;
11699;SDS011;5906;51.660;6.674;2023-01-10T13:58:01;24.00;;;4.70;;
11699;SDS011;5906;51.660;6.674;2023-01-10T14:06:50;23.73;;;5.87;;
11699;SDS011;5906;51.660;6.674;2023-01-10T14:14:22;13.90;;;3.70;;
11699;SDS011;5906;51.660;6.674;2023-01-10T14:17:24;20.77;;;4.60;;
11699;SDS011;5906;51.660;6.674;2023-01-10T14:20:14;13.00;;;5.20;;
11699;SDS011;5906;51.660;6.674;2023-01-10T14:22:45;19.80;;;4.80;;
11699;SDS011;5906;51.660;6.674;2023-01-10T14:25:25;16.10;;;5.23;;
11699;SDS011;5906;51.660;6.674;2023-01-10T14:27:54;13.40;;;3.80;;
11699;SDS011;5906;51.660;6.674;2023-01-10T14:30:33;27.27;;;4.00;;
11699;SDS011;5906;51.660;6.674;2023-01-10T14:33:14;24.03;;;4.73;;
11699;SDS011;5906;51.660;6.674;2023-01-10T14:35:46;16.83;;;4.77;;
11699;SDS011;5906;51.660;6.674;2023-01-10T14:38:35;12.53;;;4.63;;
11699;SDS011;5906;51.660;6.674;2023-01-10T14:41:51;22.30;;;4.77;;
11699;SDS011;5906;51.660;6.674;2023-01-10T14:44:15;26.23;;;4.23;;
11699;SDS011;5906;51.660;6.674;2023-01-10T14:52:40;16.57;;;3.87;;
11699;SDS011;5906;51.660;6.674;2023-01-10T14:54:41;15.93;;;4.50;;
11699;SDS011;5906;51.660;6.674;2023-01-10T14:57:15;11.23;;;3.60;;
11699;SDS011;5906;51.660;6.674;2023-01-10T14:59:47;20.40;;;5.23;;
11699;SDS011;5906;51.660;6.674;2023-01-10T15:02:19;20.60;;;4.47;;
11699;SDS011;5906;51.660;6.674;2023-01-10T15:04:52;25.33;;;5.50;;
11699;SDS011;5906;51.660;6.674;2023-01-10T15:07:21;22.10;;;5.00;;
11699;SDS011;5906;51.660;6.674;2023-01-10T15:09:50;12.30;;;4.27;;
11699;SDS011;5906;51.660;6.674;2023-01-10T15:12:19;15.70;;;4.20;;
11699;SDS011;5906;51.660;6.674;2023-01-10T15:14:48;15.97;;;3.90;;
11699;SDS011;5906;51.660;6.674;2023-01-10T15:17:20;14.57;;;5.20;;
11699;SDS011;5906;51.660;6.674;2023-01-10T15:19:48;20.90;;;5.57;;
11699;SDS011;5906;51.660;6.674;2023-01-10T15:22:22;9.13;;;4.07;;
11699;SDS011;5906;51.660;6.674;2023-01-10T15:25:37;17.43;;;6.20;;
11699;SDS011;5906;51.660;6.674;2023-01-10T15:27:49;18.70;;;5.27;;
11699;SDS011;5906;51.660;6.674;2023-01-10T15:30:22;19.63;;;7.10;;
11699;SDS011;5906;51.660;6.674;2023-01-10T15:32:51;20.70;;;8.70;;
11699;SDS011;5906;51.660;6.674;2023-01-10T15:35:21;25.00;;;5.50;;
11699;SDS011;5906;51.660;6.674;2023-01-10T15:38:01;13.13;;;4.90;;
11699;SDS011;5906;51.660;6.674;2023-01-10T15:40:36;17.33;;;4.30;;
11699;SDS011;5906;51.660;6.674;2023-01-10T15:43:26;12.27;;;5.00;;
11699;SDS011;5906;51.660;6.674;2023-01-10T15:45:54;17.53;;;4.37;;
11699;SDS011;5906;51.660;6.674;2023-01-10T15:51:13;10.73;;;4.40;;
11699;SDS011;5906;51.660;6.674;2023-01-10T15:56:18;23.20;;;4.80;;
11699;SDS011;5906;51.660;6.674;2023-01-10T15:58:55;8.73;;;4.40;;
11699;SDS011;5906;51.660;6.674;2023-01-10T16:01:24;23.83;;;4.57;;
11699;SDS011;5906;51.660;6.674;2023-01-10T16:03:55;11.17;;;4.23;;
11699;SDS011;5906;51.660;6.674;2023-01-10T16:06:28;8.03;;;4.90;;
11699;SDS011;5906;51.660;6.674;2023-01-10T16:09:00;14.10;;;3.77;;
11699;SDS011;5906;51.660;6.674;2023-01-10T16:11:38;12.97;;;4.93;;
11699;SDS011;5906;51.660;6.674;2023-01-10T16:14:30;12.40;;;4.50;;
11699;SDS011;5906;51.660;6.674;2023-01-10T16:16:59;9.30;;;5.03;;
11699;SDS011;5906;51.660;6.674;2023-01-10T16:19:27;16.20;;;5.80;;
11699;SDS011;5906;51.660;6.674;2023-01-10T16:21:55;22.13;;;5.50;;
11699;SDS011;5906;51.660;6.674;2023-01-10T16:24:25;17.27;;;5.07;;
11699;SDS011;5906;51.660;6.674;2023-01-10T16:26:57;12.77;;;4.80;;
11699;SDS011;5906;51.660;6.674;2023-01-10T16:29:28;15.03;;;5.90;;
11699;SDS011;5906;51.660;6.674;2023-01-10T16:31:55;10.10;;;6.20;;
11699;SDS011;5906;51.660;6.674;2023-01-10T16:34:22;16.33;;;6.40;;
11699;SDS011;5906;51.660;6.674;2023-01-10T16:36:51;16.07;;;7.63;;
11699;SDS011;5906;51.660;6.674;2023-01-10T16:39:19;19.23;;;7.63;;
11699;SDS011;5906;51.660;6.674;2023-01-10T16:41:48;22.67;;;7.90;;
11699;SDS011;5906;51.660;6.674;2023-01-10T16:44:33;24.40;;;8.10;;
11699;SDS011;5906;51.660;6.674;2023-01-10T16:47:01;18.60;;;7.80;;
11699;SDS011;5906;51.660;6.674;2023-01-10T16:49:32;18.43;;;6.50;;
11699;SDS011;5906;51.660;6.674;2023-01-10T16:51:59;14.40;;;7.20;;
11699;SDS011;5906;51.660;6.674;2023-01-10T16:54:26;23.83;;;5.63;;
11699;SDS011;5906;51.660;6.674;2023-01-10T16:56:53;15.67;;;6.27;;
11699;SDS011;5906;51.660;6.674;2023-01-10T16:59:21;19.33;;;6.10;;
11699;SDS011;5906;51.660;6.674;2023-01-10T17:01:52;20.57;;;6.23;;
11699;SDS011;5906;51.660;6.674;2023-01-10T17:04:25;24.77;;;6.23;;
11699;SDS011;5906;51.660;6.674;2023-01-10T17:06:56;22.87;;;5.73;;
11699;SDS011;5906;51.660;6.674;2023-01-10T17:09:25;21.77;;;5.60;;
11699;SDS011;5906;51.660;6.674;2023-01-10T17:11:54;19.47;;;7.30;;